Morden, United Kingdom
Current Conditions -  °F | °C
As of 7:20 AM on Sunday 23 Nov 2014 (Local Time) from EGLL Reporting Station
Light Rain Light Rain  
Wind Chill: 50°   Ceiling: 3000
Heat Index: 50°   Visibility: 6mi
Dew Point: 46°   Wind: 6mph
Humidity: 87%   Direction: 350°N
Pressure: 29.97"   Gusts: NA
Location:  51.4°N, 0.2°W
Report Text: EGLL 230720Z 35005KT 320V020 9999 -RA FEW010 BKN030 10/08 Q1015 TEMPO 5000 RA BKN010
Loading
Personal Weather Stations






























Interactive Weather Map New forecast layout! Learn more

10-Day Weather Forecast

Advertisements
Track Severe Weather on mobile